createdAt,value
2018-03-23T00:00:37.309Z,3.00
2018-03-23T00:03:05.220Z,3.10
2018-03-23T00:05:32.779Z,3.10
2018-03-23T00:08:00.292Z,3.00
2018-03-23T00:10:27.827Z,3.00
2018-03-23T00:12:55.319Z,3.00
2018-03-23T00:15:23.855Z,3.10
2018-03-23T00:17:51.368Z,3.10
2018-03-23T00:20:19.075Z,3.00
2018-03-23T00:22:46.839Z,2.90
2018-03-23T00:25:14.910Z,3.00
2018-03-23T00:27:43.288Z,3.10
2018-03-23T00:30:11.582Z,3.10
2018-03-23T00:32:39.736Z,3.00
2018-03-23T00:35:08.011Z,3.00
2018-03-23T00:37:35.506Z,2.90
2018-03-23T00:40:03.009Z,2.70
2018-03-23T00:42:30.515Z,2.70
2018-03-23T00:44:58.024Z,2.70
2018-03-23T00:47:26.304Z,2.70
2018-03-23T00:49:54.090Z,2.70
2018-03-23T00:52:22.083Z,2.70
2018-03-23T00:54:49.590Z,2.70
2018-03-23T00:57:17.687Z,2.70
2018-03-23T00:59:45.471Z,2.60
2018-03-23T01:02:12.960Z,2.70
2018-03-23T01:04:40.464Z,2.70
2018-03-23T01:07:08.918Z,2.60
2018-03-23T01:09:36.498Z,2.70
2018-03-23T01:12:04.567Z,2.90
2018-03-23T01:14:32.472Z,2.80
2018-03-23T01:17:00.800Z,2.80
2018-03-23T01:19:28.288Z,2.70
2018-03-23T01:21:55.803Z,2.80
2018-03-23T01:24:24.043Z,2.80
2018-03-23T01:26:51.551Z,2.80
2018-03-23T01:29:19.047Z,2.80
2018-03-23T01:31:46.680Z,2.80
2018-03-23T01:34:14.444Z,2.80
2018-03-23T01:36:41.939Z,2.70
2018-03-23T01:39:09.619Z,2.80
2018-03-23T01:41:37.120Z,2.80
2018-03-23T01:44:04.624Z,2.80
2018-03-23T01:46:32.115Z,2.70
2018-03-23T01:48:59.922Z,2.70
2018-03-23T01:51:28.666Z,2.50
2018-03-23T01:53:56.963Z,2.50
2018-03-23T01:56:24.439Z,2.60
2018-03-23T01:58:52.383Z,2.60
2018-03-23T02:01:19.884Z,2.60
2018-03-23T02:03:47.616Z,2.60
2018-03-23T02:06:15.554Z,2.70
2018-03-23T02:08:43.539Z,2.80
2018-03-23T02:11:11.204Z,2.70
2018-03-23T02:13:38.704Z,2.60
2018-03-23T02:16:06.331Z,2.60
2018-03-23T02:18:33.892Z,2.60
2018-03-23T02:21:01.644Z,2.70
2018-03-23T02:23:29.152Z,2.60
2018-03-23T02:25:56.651Z,2.40
2018-03-23T02:28:24.296Z,2.50
2018-03-23T02:30:51.815Z,2.60
2018-03-23T02:33:20.809Z,2.70
2018-03-23T02:35:48.527Z,2.80
2018-03-23T02:38:16.035Z,2.90
2018-03-23T02:40:43.777Z,2.90
2018-03-23T02:43:11.273Z,3.00
2018-03-23T02:45:38.980Z,2.90
2018-03-23T02:48:06.443Z,2.80
2018-03-23T02:50:34.203Z,2.90
2018-03-23T02:53:01.692Z,2.90
2018-03-23T02:55:29.255Z,2.80
2018-03-23T02:57:57.507Z,2.90
2018-03-23T03:00:25.418Z,3.00
2018-03-23T03:02:53.540Z,3.00
2018-03-23T03:05:21.092Z,3.10
2018-03-23T03:07:48.637Z,3.00
2018-03-23T03:10:16.295Z,3.10
2018-03-23T03:12:43.851Z,3.00
2018-03-23T03:15:11.351Z,2.90
2018-03-23T03:17:38.937Z,3.00
2018-03-23T03:20:06.443Z,3.00
2018-03-23T03:22:34.847Z,3.00
2018-03-23T03:25:02.753Z,3.10
2018-03-23T03:27:30.284Z,3.10
2018-03-23T03:29:58.382Z,3.10
2018-03-23T03:32:26.192Z,3.00
2018-03-23T03:34:54.852Z,3.10
2018-03-23T03:37:22.643Z,3.20
2018-03-23T03:39:50.154Z,3.10
2018-03-23T03:42:17.644Z,3.10
2018-03-23T03:44:46.232Z,3.10
2018-03-23T03:47:13.979Z,3.10
2018-03-23T03:49:41.475Z,3.00
2018-03-23T03:52:09.775Z,2.90
2018-03-23T03:54:38.089Z,2.80
2018-03-23T03:57:05.658Z,2.70
2018-03-23T03:59:33.152Z,2.60
2018-03-23T04:02:00.871Z,2.70
2018-03-23T04:04:29.229Z,2.80
2018-03-23T04:06:57.022Z,2.70
2018-03-23T04:09:24.772Z,2.80
2018-03-23T04:11:53.540Z,2.80
2018-03-23T04:14:21.227Z,2.80
2018-03-23T04:16:48.731Z,2.90
2018-03-23T04:19:16.444Z,2.80
2018-03-23T04:21:44.208Z,2.90
2018-03-23T04:24:11.692Z,2.80
2018-03-23T04:26:39.200Z,2.70
2018-03-23T04:29:06.901Z,2.70
2018-03-23T04:31:35.534Z,2.70
2018-03-23T04:34:03.052Z,2.80
2018-03-23T04:36:30.562Z,2.90
2018-03-23T04:38:58.221Z,2.90
2018-03-23T04:41:25.883Z,3.10
2018-03-23T04:43:54.313Z,3.20
2018-03-23T04:46:21.861Z,3.20
2018-03-23T04:48:49.343Z,2.80
2018-03-23T04:51:16.852Z,2.50
2018-03-23T04:53:44.345Z,2.50
2018-03-23T04:56:11.971Z,2.60
2018-03-23T04:58:39.715Z,2.70
2018-03-23T05:01:07.229Z,2.70
2018-03-23T05:03:35.276Z,2.60
2018-03-23T05:06:02.784Z,2.70
2018-03-23T05:08:30.280Z,2.70
2018-03-23T05:10:57.771Z,2.80
2018-03-23T05:13:26.012Z,2.90
2018-03-23T05:15:53.511Z,2.90
2018-03-23T05:18:21.257Z,2.80
2018-03-23T05:20:48.732Z,2.90
2018-03-23T05:23:16.371Z,2.90
2018-03-23T05:25:43.915Z,2.80
2018-03-23T05:28:11.671Z,2.70
2018-03-23T05:30:39.556Z,2.80
2018-03-23T05:33:08.129Z,2.70
2018-03-23T05:35:36.080Z,2.60
2018-03-23T05:38:03.628Z,2.70
2018-03-23T05:40:31.530Z,2.90
2018-03-23T05:42:59.027Z,3.00
2018-03-23T05:45:27.291Z,3.00
2018-03-23T05:47:55.068Z,3.10
2018-03-23T05:50:22.794Z,3.10
2018-03-23T05:52:51.092Z,3.10
2018-03-23T05:55:18.619Z,3.10
2018-03-23T05:57:46.519Z,3.20
2018-03-23T06:00:15.049Z,3.30
2018-03-23T06:02:42.543Z,3.30
2018-03-23T06:05:10.448Z,3.40
2018-03-23T06:07:37.956Z,3.40
2018-03-23T06:10:05.451Z,3.40
2018-03-23T06:12:34.007Z,3.50
2018-03-23T06:15:01.900Z,3.50
2018-03-23T06:17:29.742Z,3.60
2018-03-23T06:19:57.758Z,3.60
2018-03-23T06:22:25.547Z,3.60
2018-03-23T06:24:54.616Z,3.70
2018-03-23T06:27:22.112Z,3.50
2018-03-23T06:29:50.529Z,3.30
2018-03-23T06:32:19.064Z,3.30
2018-03-23T06:34:46.578Z,3.20
2018-03-23T06:37:14.269Z,3.30
2018-03-23T06:39:41.788Z,3.40
2018-03-23T06:42:09.499Z,3.30
2018-03-23T06:44:37.238Z,3.40
2018-03-23T06:47:04.756Z,3.40
2018-03-23T06:49:32.482Z,3.20
2018-03-23T06:52:00.532Z,3.10
2018-03-23T06:54:28.080Z,3.20
2018-03-23T06:56:56.515Z,3.40
2018-03-23T06:59:24.040Z,3.50
2018-03-23T07:01:51.587Z,3.50
2018-03-23T07:04:19.169Z,3.70
2018-03-23T07:06:50.204Z,3.80
2018-03-23T07:09:17.984Z,3.80
2018-03-23T07:11:45.535Z,3.40
2018-03-23T07:14:13.204Z,3.40
2018-03-23T07:16:40.960Z,3.50
2018-03-23T07:19:08.460Z,3.60
2018-03-23T07:21:36.357Z,3.70
2018-03-23T07:24:04.247Z,3.80
2018-03-23T07:26:31.951Z,3.90
2018-03-23T07:28:59.455Z,4.00
2018-03-23T07:31:26.965Z,3.90
2018-03-23T07:33:55.225Z,4.00
2018-03-23T07:36:22.756Z,4.00
2018-03-23T07:38:50.832Z,4.20
2018-03-23T07:41:18.336Z,4.20
2018-03-23T07:43:45.833Z,4.20
2018-03-23T07:46:13.500Z,4.30
2018-03-23T07:48:41.296Z,4.30
2018-03-23T07:51:08.844Z,4.50
2018-03-23T07:53:36.453Z,4.50
2018-03-23T07:56:04.719Z,4.60
2018-03-23T07:58:32.314Z,4.60
2018-03-23T08:00:59.811Z,4.70
2018-03-23T08:03:27.539Z,4.70
2018-03-23T08:05:55.309Z,4.70
2018-03-23T08:08:22.804Z,4.60
2018-03-23T08:10:50.859Z,4.40
2018-03-23T08:13:18.356Z,4.40
2018-03-23T08:15:46.057Z,4.40
2018-03-23T08:18:13.815Z,4.40
2018-03-23T08:20:42.163Z,4.40
2018-03-23T08:23:09.664Z,4.60
2018-03-23T08:25:38.005Z,4.50
2018-03-23T08:28:05.516Z,4.60
2018-03-23T08:30:34.149Z,4.60
2018-03-23T08:33:01.704Z,4.70
2018-03-23T08:35:29.187Z,4.80
2018-03-23T08:37:56.817Z,5.00
2018-03-23T08:40:24.296Z,4.90
2018-03-23T08:42:52.392Z,5.10
2018-03-23T08:45:19.892Z,5.10
2018-03-23T08:47:47.395Z,5.20
2018-03-23T08:50:14.921Z,5.10
2018-03-23T08:52:42.478Z,5.10
2018-03-23T08:55:09.968Z,5.10
2018-03-23T08:57:37.471Z,5.20
2018-03-23T09:00:05.004Z,5.30
2018-03-23T09:02:32.648Z,5.30
2018-03-23T09:05:00.148Z,5.30
2018-03-23T09:07:27.874Z,5.20
2018-03-23T09:09:55.380Z,5.30
2018-03-23T09:12:23.096Z,5.40
2018-03-23T09:14:51.511Z,5.50
2018-03-23T09:17:19.024Z,5.80
2018-03-23T09:19:46.676Z,5.80
2018-03-23T09:22:14.192Z,5.90
2018-03-23T09:24:41.859Z,5.90
2018-03-23T09:27:09.364Z,5.90
2018-03-23T09:29:37.122Z,6.30
2018-03-23T09:32:04.668Z,5.80
2018-03-23T09:34:32.340Z,6.00
2018-03-23T09:36:59.831Z,5.90
2018-03-23T09:39:28.288Z,5.90
2018-03-23T09:41:55.891Z,6.00
2018-03-23T09:44:23.387Z,6.00
2018-03-23T09:46:51.146Z,6.00
2018-03-23T09:49:18.651Z,5.90
2018-03-23T09:51:46.793Z,6.00
2018-03-23T09:54:14.309Z,6.10
2018-03-23T09:56:41.791Z,6.10
2018-03-23T09:59:09.363Z,6.20
2018-03-23T10:01:37.265Z,6.20
2018-03-23T10:04:05.633Z,6.10
2018-03-23T10:06:33.041Z,6.10
2018-03-23T10:09:00.548Z,6.50
2018-03-23T10:11:28.048Z,7.10
2018-03-23T10:13:55.603Z,8.00
2018-03-23T10:16:23.408Z,7.80
2018-03-23T10:18:51.156Z,6.90
2018-03-23T10:21:18.726Z,6.90
2018-03-23T10:23:47.067Z,6.50
2018-03-23T10:26:15.063Z,6.50
2018-03-23T10:28:43.417Z,6.50
2018-03-23T10:31:10.919Z,6.50
2018-03-23T10:33:39.152Z,6.50
2018-03-23T10:36:07.192Z,6.50
2018-03-23T10:38:35.729Z,6.70
2018-03-23T10:41:03.491Z,6.60
2018-03-23T10:43:32.357Z,6.80
2018-03-23T10:46:00.767Z,6.80
2018-03-23T10:48:28.273Z,6.50
2018-03-23T10:50:55.784Z,6.50
2018-03-23T10:53:23.280Z,3.30
2018-03-23T10:55:51.644Z,6.70
2018-03-23T10:58:19.370Z,6.70
2018-03-23T11:00:52.472Z,6.60
2018-03-23T11:03:19.984Z,6.70
2018-03-23T11:05:47.487Z,6.70
2018-03-23T11:08:14.981Z,6.80
2018-03-23T11:10:42.800Z,6.90
2018-03-23T11:13:10.560Z,6.90
2018-03-23T11:15:38.328Z,7.00
2018-03-23T11:18:05.838Z,6.90
2018-03-23T11:20:33.463Z,6.90
2018-03-23T11:23:00.964Z,6.80
2018-03-23T11:25:28.767Z,6.80
2018-03-23T11:27:57.139Z,6.90
2018-03-23T11:30:25.568Z,6.80
2018-03-23T11:32:53.119Z,7.00
2018-03-23T11:35:22.004Z,7.00
2018-03-23T11:37:49.732Z,7.10
2018-03-23T11:40:17.498Z,7.20
2018-03-23T11:42:45.000Z,7.30
2018-03-23T11:45:12.698Z,7.40
2018-03-23T11:47:40.201Z,7.70
2018-03-23T11:50:07.911Z,7.70
2018-03-23T11:52:35.423Z,7.80
2018-03-23T11:55:03.202Z,7.70
2018-03-23T11:57:31.254Z,7.80
2018-03-23T11:59:58.756Z,7.70
2018-03-23T12:02:26.407Z,7.70
2018-03-23T12:04:54.222Z,7.70
2018-03-23T12:07:21.723Z,7.80
2018-03-23T12:09:49.231Z,7.90
2018-03-23T12:12:16.800Z,7.80
2018-03-23T12:14:45.245Z,7.90
2018-03-23T12:17:12.755Z,7.90
2018-03-23T12:19:40.472Z,7.70
2018-03-23T12:22:07.983Z,7.80
2018-03-23T12:24:35.480Z,7.90
2018-03-23T12:27:03.056Z,8.00
2018-03-23T12:29:30.580Z,8.30
2018-03-23T12:31:58.145Z,8.30
2018-03-23T12:34:25.840Z,8.30
2018-03-23T12:36:54.218Z,8.40
2018-03-23T12:39:22.647Z,8.60
2018-03-23T12:41:50.373Z,8.60
2018-03-23T12:44:17.899Z,8.70
2018-03-23T12:46:45.428Z,8.70
2018-03-23T12:49:13.689Z,8.50
2018-03-23T12:51:41.188Z,8.40
2018-03-23T12:54:08.719Z,8.40
2018-03-23T12:56:36.989Z,8.20
2018-03-23T12:59:04.705Z,8.10
2018-03-23T13:01:32.199Z,8.10
2018-03-23T13:03:59.695Z,8.20
2018-03-23T13:06:27.384Z,8.40
2018-03-23T13:08:54.892Z,8.60
2018-03-23T13:11:22.557Z,8.60
2018-03-23T13:13:50.058Z,8.30
2018-03-23T13:16:17.837Z,8.40
2018-03-23T13:18:45.603Z,8.40
2018-03-23T13:21:13.088Z,8.50
2018-03-23T13:23:41.359Z,8.50
2018-03-23T13:26:08.891Z,8.50
2018-03-23T13:28:36.642Z,8.50
2018-03-23T13:31:04.136Z,8.40
2018-03-23T13:33:31.827Z,8.40
2018-03-23T13:36:00.284Z,8.00
2018-03-23T13:38:28.009Z,8.00
2018-03-23T13:40:55.788Z,8.00
2018-03-23T13:43:23.295Z,8.10
2018-03-23T13:45:51.000Z,8.20
2018-03-23T13:48:18.622Z,8.30
2018-03-23T13:50:46.261Z,8.30
2018-03-23T13:53:14.159Z,8.30
2018-03-23T13:55:42.658Z,8.30
2018-03-23T13:58:11.037Z,8.40
2018-03-23T14:00:44.810Z,8.40
2018-03-23T14:03:13.014Z,8.30
2018-03-23T14:05:41.258Z,8.30
2018-03-23T14:08:09.558Z,8.30
2018-03-23T14:10:37.128Z,8.20
2018-03-23T14:13:04.686Z,8.10
2018-03-23T14:15:32.178Z,8.10
2018-03-23T14:17:59.844Z,8.10
2018-03-23T14:20:27.582Z,8.00
2018-03-23T14:22:55.087Z,8.10
2018-03-23T14:25:22.592Z,8.00
2018-03-23T14:27:50.331Z,8.20
2018-03-23T14:30:18.104Z,8.20
2018-03-23T14:32:46.346Z,8.20
2018-03-23T14:35:14.696Z,8.10
2018-03-23T14:37:43.057Z,8.20
2018-03-23T14:40:10.704Z,8.20
2018-03-23T14:42:38.473Z,8.10
2018-03-23T14:45:06.223Z,8.00
2018-03-23T14:47:33.716Z,8.00
2018-03-23T14:50:02.992Z,8.10
2018-03-23T14:52:30.496Z,8.00
2018-03-23T14:54:58.792Z,8.00
2018-03-23T14:57:26.293Z,8.10
2018-03-23T14:59:53.807Z,8.10
2018-03-23T15:02:21.771Z,8.10
2018-03-23T15:04:49.484Z,8.20
2018-03-23T15:07:17.020Z,8.20
2018-03-23T15:09:44.784Z,8.30
2018-03-23T15:12:12.496Z,8.30
2018-03-23T15:14:40.532Z,8.20
2018-03-23T15:17:08.077Z,8.20
2018-03-23T15:19:35.860Z,8.30
2018-03-23T15:22:03.600Z,8.30
2018-03-23T15:24:31.097Z,8.30
2018-03-23T15:26:58.772Z,8.40
2018-03-23T15:29:28.069Z,8.30
2018-03-23T15:31:56.222Z,8.40
2018-03-23T15:34:23.740Z,8.30
2018-03-23T15:36:51.886Z,8.30
2018-03-23T15:39:19.435Z,8.30
2018-03-23T15:41:47.016Z,8.30
2018-03-23T15:44:14.979Z,8.40
2018-03-23T15:46:42.470Z,8.40
2018-03-23T15:49:10.188Z,8.40
2018-03-23T15:51:39.538Z,8.30
2018-03-23T15:54:07.039Z,8.30
2018-03-23T15:56:34.532Z,8.30
2018-03-23T15:59:02.348Z,8.30
2018-03-23T16:01:30.622Z,8.30
2018-03-23T16:03:58.120Z,8.30
2018-03-23T16:06:25.755Z,8.30
2018-03-23T16:08:53.265Z,8.30
2018-03-23T16:11:20.751Z,8.40
2018-03-23T16:13:48.472Z,8.30
2018-03-23T16:16:15.976Z,8.20
2018-03-23T16:18:43.692Z,8.20
2018-03-23T16:21:11.192Z,8.20
2018-03-23T16:23:38.695Z,8.20
2018-03-23T16:26:06.180Z,8.20
2018-03-23T16:28:33.783Z,5.50
2018-03-23T16:31:01.600Z,8.20
2018-03-23T16:33:29.105Z,8.10
2018-03-23T16:35:56.783Z,8.20
2018-03-23T16:38:25.124Z,8.20
2018-03-23T16:40:52.644Z,8.20
2018-03-23T16:43:21.969Z,8.20
2018-03-23T16:45:49.476Z,8.20
2018-03-23T16:48:17.299Z,8.20
2018-03-23T16:50:45.563Z,8.20
2018-03-23T16:53:13.660Z,8.20
2018-03-23T16:55:41.145Z,8.30
2018-03-23T16:58:09.242Z,8.20
2018-03-23T17:00:36.922Z,8.20
2018-03-23T17:03:05.330Z,8.20
2018-03-23T17:05:32.939Z,8.20
2018-03-23T17:08:00.455Z,8.50
2018-03-23T17:10:27.968Z,8.50
2018-03-23T17:12:55.466Z,8.50
2018-03-23T17:15:22.968Z,8.60
2018-03-23T17:17:50.460Z,8.60
2018-03-23T17:20:18.902Z,8.40
2018-03-23T17:22:47.043Z,8.40
2018-03-23T17:25:14.547Z,8.30
2018-03-23T17:27:42.054Z,8.30
2018-03-23T17:30:09.584Z,8.40
2018-03-23T17:32:37.139Z,8.40
2018-03-23T17:35:04.635Z,8.40
2018-03-23T17:37:32.145Z,8.40
2018-03-23T17:39:59.923Z,8.40
2018-03-23T17:42:27.390Z,8.40
2018-03-23T17:44:54.986Z,8.30
2018-03-23T17:47:23.143Z,8.30
2018-03-23T17:49:50.664Z,8.20
2018-03-23T17:52:18.174Z,8.30
2018-03-23T17:54:45.860Z,8.30
2018-03-23T17:57:13.619Z,8.30
2018-03-23T17:59:41.119Z,8.30
2018-03-23T18:02:09.441Z,8.30
2018-03-23T18:04:37.191Z,8.30
2018-03-23T18:07:04.704Z,8.30
2018-03-23T18:09:32.439Z,8.30
2018-03-23T18:12:00.793Z,8.20
2018-03-23T18:14:28.295Z,8.20
2018-03-23T18:16:57.315Z,8.20
2018-03-23T18:19:24.855Z,8.30
2018-03-23T18:21:52.669Z,8.20
2018-03-23T18:24:20.252Z,8.10
2018-03-23T18:26:47.985Z,8.10
2018-03-23T18:29:15.705Z,8.10
2018-03-23T18:31:43.979Z,8.10
2018-03-23T18:34:11.476Z,8.00
2018-03-23T18:36:39.777Z,8.10
2018-03-23T18:39:07.403Z,8.00
2018-03-23T18:41:34.933Z,7.90
2018-03-23T18:44:02.706Z,7.80
2018-03-23T18:46:30.232Z,7.80
2018-03-23T18:48:57.885Z,7.90
2018-03-23T18:51:25.396Z,7.80
2018-03-23T18:53:52.904Z,7.70
2018-03-23T18:56:20.863Z,7.60
2018-03-23T18:58:48.383Z,7.60
2018-03-23T19:01:15.891Z,7.70
2018-03-23T19:03:43.516Z,7.60
2018-03-23T19:06:12.382Z,7.70
2018-03-23T19:08:40.635Z,7.60
2018-03-23T19:11:09.645Z,7.60
2018-03-23T19:13:37.167Z,7.60
2018-03-23T19:16:04.807Z,7.60
2018-03-23T19:18:32.944Z,7.50
2018-03-23T19:21:00.655Z,7.60
2018-03-23T19:23:28.167Z,7.40
2018-03-23T19:43:14.087Z,7.30
2018-03-23T19:45:41.673Z,7.40
2018-03-23T19:48:09.179Z,7.40
2018-03-23T19:50:36.909Z,7.30
2018-03-23T19:53:04.430Z,7.40
2018-03-23T19:55:31.935Z,7.40
2018-03-23T19:57:59.572Z,7.40
2018-03-23T20:00:27.083Z,7.40
2018-03-23T20:02:55.379Z,7.40
2018-03-23T20:05:22.892Z,7.40
2018-03-23T20:07:50.671Z,7.40
2018-03-23T20:10:18.545Z,7.40
2018-03-23T20:12:46.796Z,7.20
2018-03-23T20:15:14.534Z,7.20
2018-03-23T20:17:47.701Z,7.20
2018-03-23T20:20:30.096Z,7.20
2018-03-23T20:22:57.743Z,7.30
2018-03-23T20:25:25.258Z,7.30
2018-03-23T20:27:58.398Z,7.30
2018-03-23T20:30:25.984Z,7.30
2018-03-23T20:32:53.988Z,7.30
2018-03-23T20:35:21.484Z,7.30
2018-03-23T20:37:48.993Z,7.10
2018-03-23T20:40:17.251Z,7.10
2018-03-23T20:42:44.811Z,7.10
2018-03-23T20:45:12.312Z,7.10
2018-03-23T20:47:40.038Z,7.10
2018-03-23T20:50:07.796Z,7.10
2018-03-23T20:52:35.320Z,7.10
2018-03-23T20:55:02.821Z,7.20
2018-03-23T20:57:30.456Z,7.20
2018-03-23T20:59:58.255Z,7.20
2018-03-23T21:02:25.751Z,7.20
2018-03-23T21:04:53.427Z,7.10
2018-03-23T21:07:20.927Z,7.10
2018-03-23T21:09:48.426Z,7.10
2018-03-23T21:12:16.097Z,7.20
2018-03-23T21:14:43.605Z,7.10
2018-03-23T21:17:11.359Z,7.20
2018-03-23T21:19:39.124Z,7.00
2018-03-23T21:22:06.876Z,7.00
2018-03-23T21:24:34.375Z,7.10
2018-03-23T21:27:02.110Z,7.00
2018-03-23T21:29:29.601Z,7.00
2018-03-23T21:31:57.292Z,7.10
2018-03-23T21:34:24.803Z,7.10
2018-03-23T21:36:52.312Z,7.10
2018-03-23T21:39:20.019Z,7.10
2018-03-23T21:41:47.528Z,7.10
2018-03-23T21:44:15.914Z,7.10
2018-03-23T21:46:43.443Z,7.20
2018-03-23T21:49:11.053Z,7.20
2018-03-23T21:51:39.348Z,7.10
2018-03-23T21:54:07.132Z,7.10
2018-03-23T21:56:34.656Z,7.10
2018-03-23T21:59:02.277Z,7.10
2018-03-23T22:01:29.782Z,7.00
2018-03-23T22:03:57.288Z,7.10
2018-03-23T22:06:25.799Z,7.10
2018-03-23T22:08:53.471Z,7.10
2018-03-23T22:11:21.920Z,7.10
2018-03-23T22:13:49.583Z,7.00
2018-03-23T22:16:17.434Z,7.00
2018-03-23T22:18:45.287Z,7.20
2018-03-23T22:21:13.557Z,7.10
2018-03-23T22:23:41.272Z,7.10
2018-03-23T22:26:09.037Z,7.10
2018-03-23T22:28:37.724Z,7.10
2018-03-23T22:31:05.429Z,7.20
2018-03-23T22:33:33.708Z,7.10
2018-03-23T22:36:01.226Z,7.10
2018-03-23T22:38:28.707Z,7.10
2018-03-23T22:40:56.231Z,7.10
2018-03-23T22:43:23.996Z,7.10
2018-03-23T22:45:51.514Z,7.10
2018-03-23T22:48:19.231Z,7.00
2018-03-23T22:50:46.740Z,7.00
2018-03-23T22:53:14.435Z,7.10
2018-03-23T22:55:41.927Z,7.00
2018-03-23T22:58:09.660Z,7.00
2018-03-23T23:00:37.152Z,7.00
2018-03-23T23:03:04.862Z,7.00
2018-03-23T23:05:32.348Z,7.00
2018-03-23T23:08:01.376Z,6.90
2018-03-23T23:10:29.112Z,6.90
2018-03-23T23:12:56.855Z,6.90
2018-03-23T23:15:24.347Z,6.90
2018-03-23T23:17:51.851Z,6.90
2018-03-23T23:20:19.367Z,6.90
2018-03-23T23:22:47.632Z,6.90
2018-03-23T23:25:15.123Z,6.90
2018-03-23T23:27:42.852Z,6.70
2018-03-23T23:30:10.344Z,6.70
2018-03-23T23:32:37.900Z,6.70
2018-03-23T23:35:05.500Z,6.80
2018-03-23T23:37:33.004Z,6.80
2018-03-23T23:40:01.182Z,6.80
2018-03-23T23:42:29.511Z,6.70
2018-03-23T23:44:57.003Z,6.80
2018-03-23T23:47:25.547Z,6.80
2018-03-23T23:49:53.307Z,6.90
2018-03-23T23:52:21.072Z,6.80
2018-03-23T23:54:48.834Z,6.80
2018-03-23T23:57:16.906Z,6.80
2018-03-23T23:59:44.395Z,6.80
